• Join FlightAware (Why Join?)
  • Login
  • US Flag 
06:14PM EDT


 

Airport Tracker/Info


-or-


 

Live Flight TrackerFlight Track Log ✈ NKS216 ✈ 18-Jun-2013 ✈ KLAX - KIAH

Flight Track Log - Related Links

Times and Time Zones

All times are in EDT time to prevent confusion due to time zone crossing. See the NKS216 flight status page for this flight to view local times or setup timezone preferences in your user account.

Time Position Orientation Groundspeed Altitude Reporting Facility
EDT Latitude Longitude Course Direction KTS MPH feet Rate Location/Type
05:09AM 33.9380 -118.4580 224° Southwest 166 191 1,700  Level FlightAware
05:09AM 33.9260 -118.4710 222° Southwest 186 214 2,200 1,440 Climbing FlightAware
05:10AM 33.8980 -118.5010 222° Southwest 232 267 3,100 1,380 Climbing FlightAware
05:10AM 33.8690 -118.5240 213° Southwest 289 333 3,700 2,100 Climbing FlightAware
05:10AM 33.8520 -118.5270 188° South 290 334 4,500 3,600 Climbing FlightAware
05:11AM 33.7750 -118.5230 178° South 285 328 8,100 3,420 Climbing FlightAware
05:12AM 33.7430 -118.5220 179° South 287 330 9,400 2,880 Climbing FlightAware
05:12AM 33.7040 -118.5130 169° South 310 357 10,700 2,400 Climbing FlightAware
05:12AM 33.6900 -118.4980 138° Southeast 328 377 11,100 1,560 Climbing FlightAware
05:13AM 33.6780 -118.4660 114° Southeast 351 404 11,500 1,320 Climbing FlightAware
05:13AM 33.6600 -118.3880 105° East 386 444 12,400 1,800 Climbing FlightAware
05:14AM 33.6440 -118.2990 102° East 400 460 14,000 2,220 Climbing FlightAware
05:15AM 33.6440 -118.2080 90° East 409 471 15,500 2,160 Climbing FlightAware
05:15AM 33.6400 -118.1110 93° East 418 481 17,000 1,980 Climbing FlightAware
05:16AM 33.6320 -118.0050 95° East 429 494 18,400 1,860 Climbing FlightAware
05:17AM 33.6250 -117.9040 95° East 435 501 19,800 1,860 Climbing FlightAware
05:18AM 33.6180 -117.8060 95° East 441 507 21,000 1,680 Climbing FlightAware
05:18AM 33.6110 -117.7040 95° East 448 516 22,100 1,500 Climbing FlightAware
05:19AM 33.6040 -117.5950 94° East 457 526 23,200 1,560 Climbing FlightAware
05:20AM 33.5960 -117.4930 95° East 461 531 24,300 1,500 Climbing FlightAware
05:20AM 33.5890 -117.3830 94° East 472 543 25,300 1,380 Climbing FlightAware
05:21AM 33.5800 -117.2700 95° East 479 551 26,300 1,320 Climbing FlightAware
05:22AM 33.5720 -117.1630 95° East 485 558 27,200 1,320 Climbing FlightAware
05:22AM 33.5630 -117.0430 95° East 492 566 28,200 1,260 Climbing FlightAware
05:23AM 33.5550 -116.9340 95° East 498 573 29,000 1,140 Climbing FlightAware
05:24AM 33.5460 -116.8200 95° East 504 580 29,800 1,080 Climbing FlightAware
05:25AM 33.5370 -116.6970 95° East 510 587 30,600 1,260 Climbing FlightAware
05:25AM 33.5250 -116.5510 96° East 506 582 31,900 1,320 Climbing FlightAware
05:26AM 33.5160 -116.4310 95° East 511 588 32,700 1,140 Climbing FlightAware
05:27AM 33.5060 -116.3050 95° East 511 588 33,600 1,260 Climbing FlightAware
05:28AM 33.4960 -116.1930 96° East 505 581 34,500 960 Climbing FlightAware
05:28AM 33.4870 -116.0750 95° East 513 590 34,900 780 Climbing FlightAware
05:29AM 33.4770 -115.9640 96° East 509 586 35,600 900 Climbing FlightAware
05:30AM 33.4640 -115.8020 95° East 510 587 36,400 720 Climbing FlightAware
05:31AM 33.4530 -115.6830 96° East 513 590 36,900 420 Climbing FlightAware
05:31AM 33.4440 -115.5780 96° East 512 589 37,000 60 Climbing FlightAware
05:32AM 33.4340 -115.4640 96° East 514 592 37,000  Level FlightAware
05:33AM 33.4190 -115.2960 96° East 514 592 37,000  Level FlightAware
05:34AM 33.4120 -115.2070 95° East 514 592 37,000  Level FlightAware
05:35AM 33.3980 -115.0550 96° East 514 592 37,000  Level FlightAware
05:35AM 33.3900 -114.9620 96° East 514 592 37,000  Level FlightAware
05:36AM 33.3820 -114.8750 96° East 514 592 37,000  Level FlightAware
05:37AM 33.3720 -114.7540 96° East 514 592 37,000  Level FlightAware
05:37AM 33.3640 -114.6650 96° East 514 592 37,000  Level FlightAware
05:38AM 33.3540 -114.5500 96° East 514 592 37,000  Level FlightAware
05:39AM 33.3250 -114.2840 97° East 521 600 37,000  Level FlightAware
05:39AM 33.3140 -114.1730 97° East 522 601 37,000  Level FlightAware
05:40AM 33.2970 -114.0080 97° East 522 601 37,000  Level FlightAware
05:41AM 33.2850 -113.8830 97° East 523 602 37,000  Level FlightAware
05:42AM 33.2730 -113.7670 97° East 522 601 37,000  Level FlightAware
05:43AM 33.2610 -113.6510 97° East 520 598 37,000  Level FlightAware
05:44AM 33.2450 -113.4980 97° East 518 596 37,000  Level FlightAware
05:44AM 33.2340 -113.3930 97° East 516 594 37,000  Level FlightAware
05:45AM 33.2100 -113.1650 97° East 515 593 37,000  Level FlightAware
05:46AM 33.1990 -113.0640 97° East 514 592 37,000  Level FlightAware
05:47AM 33.1850 -112.9310 97° East 515 593 37,000  Level FlightAware
05:47AM 33.1710 -112.8070 98° East 516 594 37,000  Level FlightAware
05:48AM 33.1590 -112.6950 97° East 517 595 37,000  Level FlightAware
05:49AM 33.1450 -112.5690 98° East 517 595 37,000  Level FlightAware
05:49AM 33.1320 -112.4570 98° East 517 595 37,000  Level FlightAware
05:50AM 33.1200 -112.3510 98° East 516 594 37,000  Level FlightAware
05:51AM 33.1050 -112.2190 98° East 517 595 37,000  Level FlightAware
05:52AM 33.0910 -112.1040 98° East 516 594 37,000  Level FlightAware
05:52AM 33.0770 -111.9840 98° East 517 595 37,000  Level FlightAware
05:53AM 33.0640 -111.8710 98° East 515 593 37,000  Level FlightAware
05:54AM 33.0490 -111.7430 98° East 515 593 37,000  Level FlightAware
05:54AM 33.0360 -111.6300 98° East 515 593 37,000  Level FlightAware
05:55AM 33.0280 -111.5640 98° East 514 592 37,000  Level FlightAware
05:56AM 33.0130 -111.4380 98° East 513 590 37,000  Level FlightAware
05:57AM 32.9990 -111.3230 98° East 513 590 37,000  Level FlightAware
05:57AM 32.9810 -111.1800 98° East 512 589 37,000  Level FlightAware
05:58AM 32.9680 -111.0760 98° East 513 590 37,000  Level FlightAware
05:59AM 32.9460 -110.9010 98° East 514 592 37,000  Level FlightAware
06:00AM 32.9300 -110.7730 98° East 512 589 37,000  Level FlightAware
06:00AM 32.9130 -110.6390 99° East 510 587 37,000  Level FlightAware
06:01AM 32.8940 -110.4960 99° East 508 585 37,000 -120 Level FlightAware
06:02AM 32.8800 -110.3870 99° East 510 587 36,900  Descending FlightAware
06:03AM 32.8660 -110.2750 98° East 510 587 37,000 60 Climbing FlightAware
06:03AM 32.8490 -110.1460 99° East 511 588 37,000  Level FlightAware
06:04AM 32.8330 -110.0310 99° East 510 587 37,000  Level FlightAware
06:05AM 32.8190 -109.9210 99° East 511 588 37,000  Level FlightAware
06:05AM 32.8070 -109.8360 100° East 511 588 37,000  Level FlightAware
06:06AM 32.7870 -109.6900 99° East 512 589 37,000  Level FlightAware
06:07AM 32.7710 -109.5710 99° East 511 588 37,000  Level FlightAware
06:07AM 32.7560 -109.4570 99° East 511 588 37,000  Level FlightAware
06:08AM 32.7400 -109.3440 100° East 511 588 37,000  Level FlightAware
06:09AM 32.7230 -109.2190 99° East 512 589 37,000  Level FlightAware
06:10AM 32.7060 -109.1020 100° East 510 587 37,000  Level FlightAware
06:10AM 32.6900 -108.9900 100° East 508 585 37,000  Level FlightAware
06:11AM 32.6750 -108.8800 99° East 510 587 37,000  Level FlightAware
06:12AM 32.6500 -108.7110 100° East 508 585 37,000  Level FlightAware
06:13AM 32.6350 -108.6060 100° East 506 582 37,000  Level FlightAware
06:13AM 32.6170 -108.4850 100° East 507 583 37,000  Level FlightAware
06:14AM 32.6000 -108.3640 99° East 507 583 37,000  Level FlightAware
06:15AM 32.5860 -108.2700 100° East 507 583 37,000  Level FlightAware
06:16AM 32.5670 -108.1390 100° East 505 581 37,000  Level FlightAware
06:17AM 32.5440 -107.9860 100° East 505 581 37,000  Level FlightAware
06:17AM 32.5290 -107.8720 99° East 505 581 37,000  Level FlightAware
06:18AM 32.5180 -107.7890 99° East 505 581 37,000  Level FlightAware
06:18AM 32.5110 -107.7330 98° East 505 581 37,000  Level FlightAware
06:19AM 32.4930 -107.6050 99° East 505 581 37,000  Level FlightAware
06:20AM 32.4820 -107.5210 99° East 505 581 37,000  Level FlightAware
06:21AM 32.4190 -107.1780 102° East 503 579 37,000  Level FlightAware
06:22AM 32.4050 -107.0850 100° East 503 579 37,000  Level FlightAware
06:23AM 32.3850 -106.9640 101° East 502 578 37,000  Level FlightAware
06:23AM 32.3660 -106.8430 101° East 504 580 37,000  Level FlightAware
06:24AM 32.3480 -106.7310 101° East 503 579 37,000  Level FlightAware
06:25AM 32.3230 -106.5730 101° East 503 579 37,000  Level FlightAware
06:26AM 32.2980 -106.4230 101° East 504 580 37,000  Level FlightAware
06:27AM 32.2790 -106.3100 101° East 505 581 37,000  Level FlightAware
06:27AM 32.2590 -106.1890 101° East 504 580 37,000  Level FlightAware
06:28AM 32.2410 -106.0780 101° East 502 578 37,000  Level FlightAware
06:29AM 32.2260 -105.9910 101° East 501 577 37,000  Level FlightAware
06:30AM 32.2050 -105.8650 101° East 500 575 37,000  Level FlightAware
06:30AM 32.1910 -105.7790 101° East 500 575 37,000  Level FlightAware
06:31AM 32.1770 -105.6920 101° East 500 575 37,000  Level FlightAware
06:32AM 32.1590 -105.5830 101° East 500 575 37,000  Level FlightAware
06:32AM 32.1450 -105.5010 101° East 500 575 37,000  Level FlightAware
06:33AM 32.1270 -105.3870 101° East 500 575 37,000  Level FlightAware
06:34AM 32.1140 -105.3090 101° East 500 575 37,000  Level FlightAware
06:34AM 32.0960 -105.2020 101° East 500 575 37,000  Level FlightAware
06:35AM 32.0820 -105.1130 100° East 500 575 37,000  Level FlightAware
06:36AM 32.0630 -105.0020 101° East 500 575 37,000  Level FlightAware
06:36AM 32.0490 -104.9170 101° East 500 575 37,000  Level FlightAware
06:37AM 31.9940 -104.6470 103° East 490 564 37,000  Level FlightAware
06:38AM 31.9790 -104.5610 102° East 490 564 37,000  Level FlightAware
06:39AM 31.9610 -104.4520 101° East 490 564 37,000  Level FlightAware
06:39AM 31.9350 -104.3220 103° East 490 564 37,000  Level FlightAware
06:40AM 31.9200 -104.2380 102° East 489 563 37,000  Level FlightAware
06:41AM 31.9010 -104.1320 102° East 489 563 37,000  Level FlightAware
06:41AM 31.8860 -104.0520 102° East 489 563 37,000  Level FlightAware
06:42AM 31.8670 -103.9460 102° East 489 563 37,000  Level FlightAware
06:43AM 31.8530 -103.8660 102° East 489 563 37,000  Level FlightAware
06:43AM 31.8340 -103.7640 102° East 489 563 37,000  Level FlightAware
06:44AM 31.8150 -103.6580 102° East 489 563 37,000  Level FlightAware
06:45AM 31.7960 -103.5540 102° East 489 563 37,000  Level FlightAware
06:46AM 31.7770 -103.4480 102° East 489 563 37,000  Level FlightAware
06:47AM 31.7240 -103.1910 104° East 486 559 37,000  Level FlightAware
06:47AM 31.7070 -103.0970 102° East 485 558 37,000  Level FlightAware
06:48AM 31.6930 -103.0210 102° East 485 558 37,000  Level FlightAware
06:49AM 31.6730 -102.9130 102° East 485 558 37,000  Level FlightAware
06:49AM 31.6580 -102.8300 102° East 485 558 37,000  Level FlightAware
06:51AM 31.6080 -102.5960 104° East 480 552 37,000  Level FlightAware
06:52AM 31.5710 -102.4090 103° East 480 552 37,000  Level FlightAware
06:52AM 31.5490 -102.2960 103° East 479 551 37,000  Level FlightAware
06:53AM 31.5270 -102.1830 103° East 480 552 37,000  Level FlightAware
06:54AM 31.5070 -102.0860 104° East 480 552 37,000  Level FlightAware
06:54AM 31.4954 -102.0280 103° East 481 554 37,000  Level FlightAware ADS-B
06:55AM 31.4751 -101.9270 103° East 482 555 37,000  Level FlightAware ADS-B
06:55AM 31.4580 -101.8450 104° East 482 555 37,000  Level FlightAware
06:56AM 31.4380 -101.7450 103° East 483 556 37,000  Level FlightAware
06:57AM 31.4160 -101.6380 104° East 483 556 37,000  Level FlightAware
06:57AM 31.3940 -101.5310 104° East 483 556 37,000  Level FlightAware
06:58AM 31.3710 -101.4190 103° East 483 556 37,000  Level FlightAware
06:59AM 31.3490 -101.3140 104° East 483 556 37,000  Level FlightAware
07:00AM 31.3260 -101.2040 104° East 483 556 37,000  Level FlightAware
07:00AM 31.3050 -101.1020 104° East 482 555 37,000  Level FlightAware
07:01AM 31.2840 -101.0030 104° East 480 552 37,000  Level FlightAware
07:02AM 31.2600 -100.8900 104° East 479 551 37,000  Level FlightAware
07:02AM 31.2400 -100.7950 104° East 479 551 37,000 -120 Level FlightAware
07:03AM 31.2140 -100.6740 104° East 480 552 36,900  Descending FlightAware
07:04AM 31.1930 -100.5740 104° East 481 554 37,000 60 Climbing FlightAware
07:05AM 31.1710 -100.4690 104° East 482 555 37,000  Level FlightAware
07:05AM 31.1440 -100.3470 104° East 484 557 37,000  Level FlightAware
07:06AM 31.1180 -100.2270 104° East 485 558 37,000  Level FlightAware
07:07AM 31.0950 -100.1200 104° East 484 557 37,000  Level FlightAware
07:08AM 31.0720 -100.0150 104° East 482 555 37,000  Level FlightAware
07:08AM 31.0520 -99.9020 102° East 480 552 37,000 -120 Level FlightAware
07:09AM 31.0480 -99.7980 93° East 480 552 36,900  Descending FlightAware
07:10AM 31.0420 -99.6860 94° East 480 552 37,000 60 Climbing FlightAware
07:10AM 31.0360 -99.5710 93° East 480 552 37,000  Level FlightAware
07:11AM 31.0330 -99.5150 94° East 481 554 37,000  Level FlightAware
07:12AM 31.0240 -99.3260 93° East 484 557 37,000  Level FlightAware
07:13AM 31.0180 -99.2100 93° East 486 559 37,000  Level FlightAware
07:13AM 31.0120 -99.1080 94° East 488 562 37,000  Level FlightAware
07:14AM 31.0070 -99.0160 94° East 489 563 37,000  Level FlightAware
07:15AM 31.0000 -98.8840 94° East 492 566 37,000  Level FlightAware
07:15AM 30.9976 -98.8430 94° East 491 565 37,000  Level FlightAware ADS-B
07:16AM 30.9928 -98.7575 94° East 492 566 37,000  Level FlightAware ADS-B
07:16AM 30.9870 -98.6582 94° East 492 566 37,000  Level FlightAware ADS-B
07:17AM 30.9812 -98.5583 94° East 492 566 37,000  Level FlightAware ADS-B
07:17AM 30.9760 -98.4676 94° East 491 565 37,000  Level FlightAware ADS-B
07:18AM 30.9694 -98.3570 94° East 491 565 37,000  Level FlightAware ADS-B
07:19AM 30.9640 -98.2670 94° East 492 566 37,000  Level FlightAware ADS-B
07:19AM 30.9591 -98.1873 94° East 493 567 37,000  Level FlightAware ADS-B
07:20AM 30.9540 -98.1050 94° East 494 568 37,000  Level FlightAware
07:20AM 30.9532 -98.0863 93° East 494 568 37,000  Level FlightAware ADS-B
07:20AM 30.9475 -97.9975 94° East 494 568 37,000  Level FlightAware ADS-B
07:21AM 30.9423 -97.9175 94° East 495 570 37,000  Level FlightAware ADS-B
07:21AM 30.9363 -97.8227 94° East 495 570 37,000  Level FlightAware ADS-B
07:22AM 30.9311 -97.7404 94° East 495 570 37,000  Level FlightAware ADS-B
07:22AM 30.9259 -97.6596 94° East 495 570 37,000  Level FlightAware ADS-B
07:23AM 30.9207 -97.5797 94° East 494 568 37,000 -120 Level FlightAware ADS-B
07:23AM 30.9153 -97.4993 94° East 495 570 36,900 -540 Descending FlightAware ADS-B
07:24AM 30.9099 -97.4197 95° East 490 564 36,500 -900 Descending FlightAware ADS-B
07:25AM 30.9047 -97.3406 94° East 485 558 36,000 -1,320 Descending FlightAware ADS-B
07:26AM 30.8935 -97.1799 95° East 474 545 34,500 -1,860 Descending FlightAware ADS-B
07:26AM 30.8882 -97.1033 95° East 474 545 33,200 -2,700 Descending FlightAware ADS-B
07:27AM 30.8829 -97.0262 95° East 476 548 31,800 -2,820 Descending FlightAware ADS-B
07:27AM 30.8775 -96.9486 95° East 476 548 30,400 -2,760 Descending FlightAware ADS-B
07:28AM 30.8721 -96.8719 95° East 474 545 29,000 -2,520 Descending FlightAware ADS-B
07:28AM 30.8665 -96.7941 95° East 467 537 27,800 -2,400 Descending FlightAware ADS-B
07:29AM 30.8618 -96.7305 95° East 461 531 26,800 -2,700 Descending FlightAware ADS-B
07:29AM 30.8545 -96.6934 103° East 463 533 26,000 -3,120 Descending FlightAware ADS-B
07:29AM 30.8470 -96.6718 112° Southeast 466 536 25,500 -3,480 Descending FlightAware ADS-B
07:29AM 30.8430 -96.6624 116° Southeast 467 537 25,200 -3,000 Descending FlightAware ADS-B
07:31AM 30.7163 -96.4011 120° Southeast 449 517 19,300 -2,880 Descending FlightAware ADS-B
07:32AM 30.6561 -96.2771 119° Southeast 434 499 16,600 -2,760 Descending FlightAware ADS-B
07:34AM 30.5708 -96.1022 120° Southeast 385 443 12,500 -2,640 Descending FlightAware ADS-B
07:34AM 30.5449 -96.0488 119° Southeast 371 427 11,300 -1,980 Descending FlightAware ADS-B
07:35AM 30.5070 -95.9713 120° Southeast 368 423 10,000 -840 Descending FlightAware ADS-B
07:36AM 30.4622 -95.8807 121° Southeast 365 420 10,000 -120 Level FlightAware ADS-B
07:36AM 30.4544 -95.8693 131° Southeast 366 421 9,900 -360 Descending FlightAware ADS-B
07:36AM 30.4382 -95.8548 147° Southeast 362 417 9,900  Level FlightAware ADS-B
07:37AM 30.3677 -95.8274 163° South 332 382 9,900  Level FlightAware ADS-B
07:37AM 30.3450 -95.8189 162° South 333 383 9,900 -480 Level FlightAware ADS-B
07:39AM 30.2185 -95.7701 162° South 298 343 9,100 -840 Descending FlightAware ADS-B
07:39AM 30.1793 -95.7550 162° South 291 335 8,200 -2,100 Descending FlightAware ADS-B
07:40AM 30.1445 -95.7415 161° South 285 328 7,100 -2,340 Descending FlightAware ADS-B
07:40AM 30.1407 -95.7396 157° South 286 329 7,000 -2,580 Descending FlightAware ADS-B
07:40AM 30.1355 -95.7364 152° Southeast 287 330 6,800 -2,580 Descending FlightAware ADS-B
07:40AM 30.1321 -95.7340 149° Southeast 287 330 6,700 -2,280 Descending FlightAware ADS-B
07:40AM 30.1178 -95.7223 145° Southeast 283 326 6,200 -2,160 Descending FlightAware ADS-B
07:40AM 30.1001 -95.7070 143° Southeast 278 320 5,600 -2,040 Descending FlightAware ADS-B
07:40AM 30.0839 -95.6927 143° Southeast 272 313 5,100 -2,160 Descending FlightAware ADS-B
07:41AM 30.0686 -95.6791 142° Southeast 268 308 4,500 -2,100 Descending FlightAware ADS-B
07:41AM 30.0534 -95.6653 142° Southeast 263 303 4,000 -1,800 Descending FlightAware ADS-B
07:41AM 30.0391 -95.6521 141° Southeast 260 299 3,600 -1,200 Descending FlightAware ADS-B
07:42AM 30.0249 -95.6391 142° Southeast 253 291 3,400 -720 Descending FlightAware ADS-B
07:42AM 30.0146 -95.6291 140° Southeast 248 285 3,300 -840 Descending FlightAware ADS-B
07:42AM 30.0122 -95.6260 132° Southeast 247 284 3,200 -780 Descending FlightAware ADS-B
07:42AM 30.0092 -95.6208 124° Southeast 248 285 3,200 -600 Level FlightAware ADS-B
07:42AM 30.0065 -95.6136 113° Southeast 247 284 3,100 -720 Descending FlightAware ADS-B
07:42AM 30.0054 -95.6090 105° East 246 283 3,100 -360 Level FlightAware ADS-B
07:42AM 30.0022 -95.5901 101° East 239 275 3,000 -420 Descending FlightAware ADS-B
07:42AM 29.9997 -95.5739 100° East 226 260 2,900  Descending FlightAware ADS-B
07:43AM 29.9971 -95.5561 100° East 211 243 3,000 240 Climbing FlightAware ADS-B
07:43AM 29.9952 -95.5459 102° East 203 234 3,000  Level FlightAware ADS-B
07:43AM 29.9946 -95.5412 98° East 202 232 3,000 -480 Level FlightAware ADS-B
07:43AM 29.9937 -95.5314 96° East 204 235 2,900 -960 Descending FlightAware ADS-B
07:43AM 29.9934 -95.5213 92° East 204 235 2,700 -1,080 Descending FlightAware ADS-B
07:44AM 29.9932 -95.5068 91° East 202 232 2,500 -900 Descending FlightAware ADS-B
07:44AM 29.9932 -95.4915 90° East 203 234 2,300 -1,080 Descending FlightAware ADS-B
07:44AM 29.9932 -95.4754 90° East 203 234 2,000 -1,140 Descending FlightAware ADS-B
07:44AM 29.9932 -95.4571 90° East 201 231 1,700 -1,080 Descending FlightAware ADS-B
07:45AM 29.9933 -95.4393 90° East 188 216 1,400 -900 Descending FlightAware ADS-B
07:45AM 29.9933 -95.4237 90° East 177 204 1,200 -780 Descending FlightAware ADS-B
07:45AM 29.9933 -95.4097 90° East 161 185 1,000 -780 Descending FlightAware ADS-B
07:45AM 29.9933 -95.3975 90° East 148 170 800 -780 Descending FlightAware ADS-B
07:46AM 29.9934 -95.3843 89° East 140 161 600 -780 Descending FlightAware ADS-B
07:46AM 29.9934 -95.3731 90° East 135 155 400 -900 Descending FlightAware ADS-B
07:46AM 29.9934 -95.3688 90° East 133 153 300 -720 Descending FlightAware ADS-B
07:46AM 29.9934 -95.3607 90° East 130 150 200 -540 Descending FlightAware ADS-B
07:46AM 29.9934 -95.3523 90° East 130 150 -1,020 Descending FlightAware ADS-B
07:46AM 29.9934 -95.3496 90° East 127 146  Level FlightAware ADS-B